Anaconda, Montana
Current Conditions -  °F | °C
As of 9:32 PM on Saturday 22 Nov 2014 (Local Time) from KBTM Reporting Station
Light Snow Light Snow  
Wind Chill: 22°   Ceiling: 2800
Heat Index: 28°   Visibility: 5mi
Dew Point: 24°   Wind: 6mph
Humidity: 85%   Direction: 330°NNW
Pressure: 29.72"   Gusts: NA
Location:  46.13°N, 112.94°W
Report Text: KBTM 230432Z AUTO 33005KT 5SM -SN BR OVC028 M02/M04 A2972 RMK AO2 SNB0357 P0000 T10221044
Loading
Personal Weather Stations






























Interactive Weather Map New forecast layout! Learn more

10-Day Weather Forecast

Advertisements
Track Severe Weather on mobile